createdAt,value
2023-03-27T00:00:56.713Z,3.50
2023-03-27T00:03:24.541Z,3.50
2023-03-27T00:06:08.163Z,3.40
2023-03-27T00:08:36.478Z,3.50
2023-03-27T00:11:04.291Z,3.40
2023-03-27T00:13:31.529Z,3.40
2023-03-27T00:16:00.333Z,3.40
2023-03-27T00:18:28.302Z,3.30
2023-03-27T00:20:58.798Z,3.30
2023-03-27T00:23:25.941Z,3.30
2023-03-27T00:25:54.289Z,3.30
2023-03-27T00:28:21.036Z,3.30
2023-03-27T00:30:48.347Z,3.30
2023-03-27T00:33:15.320Z,3.30
2023-03-27T00:35:46.084Z,3.20
2023-03-27T00:38:13.464Z,3.20
2023-03-27T00:40:40.560Z,3.10
2023-03-27T00:43:22.781Z,3.10
2023-03-27T00:45:52.040Z,3.10
2023-03-27T00:48:20.672Z,3.10
2023-03-27T00:50:49.698Z,3.00
2023-03-27T00:53:18.135Z,3.00
2023-03-27T00:55:46.236Z,3.00
2023-03-27T00:58:16.341Z,3.00
2023-03-27T01:00:43.797Z,2.90
2023-03-27T01:03:11.287Z,3.00
2023-03-27T01:05:38.518Z,2.90
2023-03-27T01:08:05.387Z,2.90
2023-03-27T01:10:54.711Z,2.90
2023-03-27T01:13:31.151Z,2.90
2023-03-27T01:16:05.999Z,2.80
2023-03-27T01:19:02.492Z,2.80
2023-03-27T01:21:29.323Z,2.80
2023-03-27T01:24:00.886Z,2.80
2023-03-27T01:26:51.571Z,2.80
2023-03-27T01:29:27.361Z,2.80
2023-03-27T01:31:54.334Z,2.70
2023-03-27T01:34:24.319Z,2.70
2023-03-27T01:36:52.008Z,2.70
2023-03-27T01:39:25.886Z,2.70
2023-03-27T01:42:25.384Z,2.70
2023-03-27T01:45:02.666Z,2.70
2023-03-27T01:47:45.030Z,2.70
2023-03-27T01:50:29.180Z,2.70
2023-03-27T01:53:01.616Z,2.70
2023-03-27T01:55:31.450Z,2.70
2023-03-27T01:58:05.294Z,2.70
2023-03-27T02:01:03.611Z,2.70
2023-03-27T02:03:26.970Z,2.70
2023-03-27T02:05:53.778Z,2.70
2023-03-27T02:08:44.282Z,2.70
2023-03-27T02:11:20.472Z,2.70
2023-03-27T02:13:50.629Z,2.70
2023-03-27T02:16:19.671Z,2.70
2023-03-27T02:18:51.677Z,2.70
2023-03-27T02:21:18.705Z,2.70
2023-03-27T02:23:47.699Z,2.70
2023-03-27T02:26:14.677Z,2.70
2023-03-27T02:29:01.606Z,2.70
2023-03-27T02:31:38.529Z,2.70
2023-03-27T02:34:12.005Z,2.70
2023-03-27T02:36:48.435Z,2.70
2023-03-27T02:39:21.639Z,2.70
2023-03-27T02:41:52.195Z,2.70
2023-03-27T02:44:46.821Z,2.80
2023-03-27T02:47:35.329Z,2.70
2023-03-27T02:50:21.377Z,2.70
2023-03-27T02:52:54.887Z,2.70
2023-03-27T02:55:24.146Z,2.70
2023-03-27T02:57:56.587Z,2.70
2023-03-27T03:00:33.019Z,2.70
2023-03-27T03:03:30.512Z,2.70
2023-03-27T03:06:07.341Z,2.70
2023-03-27T03:08:38.532Z,2.70
2023-03-27T03:11:10.600Z,2.60
2023-03-27T03:13:37.766Z,2.60
2023-03-27T03:16:05.499Z,2.60
2023-03-27T03:18:33.664Z,2.60
2023-03-27T03:21:00.398Z,2.50
2023-03-27T03:23:27.703Z,2.50
2023-03-27T03:25:56.804Z,2.50
2023-03-27T03:28:32.026Z,2.50
2023-03-27T03:30:59.105Z,2.50
2023-03-27T03:33:27.940Z,2.50
2023-03-27T03:35:54.930Z,2.50
2023-03-27T03:38:29.840Z,2.40
2023-03-27T03:41:12.639Z,2.40
2023-03-27T03:43:39.739Z,2.40
2023-03-27T03:46:08.298Z,2.40
2023-03-27T03:48:35.147Z,2.40
2023-03-27T03:51:02.330Z,2.40
2023-03-27T03:53:29.704Z,2.40
2023-03-27T03:55:57.544Z,2.40
2023-03-27T03:58:34.216Z,2.40
2023-03-27T04:01:04.679Z,2.40
2023-03-27T04:03:52.570Z,2.40
2023-03-27T04:06:25.389Z,2.40
2023-03-27T04:08:58.325Z,2.40
2023-03-27T04:11:51.587Z,2.40
2023-03-27T04:14:41.325Z,2.40
2023-03-27T04:17:26.519Z,2.40
2023-03-27T04:19:54.852Z,2.40
2023-03-27T04:22:22.976Z,2.40
2023-03-27T04:24:50.571Z,2.40
2023-03-27T04:27:21.132Z,2.40
2023-03-27T04:29:57.888Z,2.40
2023-03-27T04:32:43.625Z,2.40
2023-03-27T04:35:46.918Z,2.40
2023-03-27T04:38:42.367Z,2.40
2023-03-27T04:41:11.111Z,2.40
2023-03-27T04:43:41.709Z,2.50
2023-03-27T04:46:08.691Z,2.40
2023-03-27T04:48:38.520Z,2.40
2023-03-27T04:51:32.313Z,2.40
2023-03-27T04:53:59.522Z,2.50
2023-03-27T04:56:26.663Z,2.50
2023-03-27T04:58:55.251Z,2.40
2023-03-27T05:01:22.865Z,2.40
2023-03-27T05:04:08.372Z,2.40
2023-03-27T05:07:04.562Z,2.40
2023-03-27T05:09:31.746Z,2.40
2023-03-27T05:11:58.798Z,2.40
2023-03-27T05:14:26.517Z,2.40
2023-03-27T05:16:54.432Z,2.40
2023-03-27T05:19:22.289Z,2.40
2023-03-27T05:21:57.811Z,2.40
2023-03-27T05:24:24.542Z,2.40
2023-03-27T05:26:51.636Z,2.40
2023-03-27T05:29:18.888Z,2.40
2023-03-27T05:31:48.079Z,2.40
2023-03-27T05:34:38.700Z,2.40
2023-03-27T05:37:09.083Z,2.50
2023-03-27T05:40:01.585Z,2.50
2023-03-27T05:45:09.973Z,2.50
2023-03-27T05:47:58.755Z,2.50
2023-03-27T05:50:28.543Z,2.50
2023-03-27T05:53:04.526Z,2.50
2023-03-27T05:55:37.634Z,2.60
2023-03-27T05:58:10.258Z,2.60
2023-03-27T06:00:39.356Z,2.60
2023-03-27T06:03:07.824Z,2.60
2023-03-27T06:05:51.101Z,2.60
2023-03-27T06:08:19.382Z,2.60
2023-03-27T06:10:46.599Z,2.60
2023-03-27T06:13:22.033Z,2.60
2023-03-27T06:15:56.534Z,2.70
2023-03-27T06:18:42.317Z,2.70
2023-03-27T06:21:11.655Z,2.70
2023-03-27T06:23:39.272Z,2.70
2023-03-27T06:26:12.099Z,2.80
2023-03-27T06:28:39.214Z,2.80
2023-03-27T06:31:06.333Z,2.80
2023-03-27T06:33:39.877Z,2.90
2023-03-27T06:36:10.477Z,2.90
2023-03-27T06:38:40.609Z,3.00
2023-03-27T06:41:07.781Z,3.00
2023-03-27T06:43:51.424Z,3.00
2023-03-27T06:46:45.542Z,3.10
2023-03-27T06:49:33.137Z,3.20
2023-03-27T06:52:08.733Z,3.30
2023-03-27T06:54:35.640Z,3.30
2023-03-27T06:57:02.722Z,3.30
2023-03-27T06:59:43.195Z,3.40
2023-03-27T07:02:11.631Z,3.40
2023-03-27T07:05:08.441Z,3.50
2023-03-27T07:07:41.474Z,3.50
2023-03-27T07:10:10.634Z,3.60
2023-03-27T07:12:38.430Z,3.60
2023-03-27T07:15:06.278Z,3.60
2023-03-27T07:17:47.616Z,3.70
2023-03-27T07:20:16.328Z,3.70
2023-03-27T07:22:43.362Z,3.80
2023-03-27T07:25:22.140Z,3.80
2023-03-27T07:27:50.301Z,3.90
2023-03-27T07:30:18.297Z,3.90
2023-03-27T07:32:45.567Z,3.90
2023-03-27T07:35:13.019Z,4.00
2023-03-27T07:37:58.512Z,4.00
2023-03-27T07:40:51.168Z,4.10
2023-03-27T07:43:40.517Z,4.10
2023-03-27T07:46:08.684Z,4.20
2023-03-27T07:48:35.927Z,4.20
2023-03-27T07:51:13.344Z,4.20
2023-03-27T07:53:41.749Z,4.20
2023-03-27T07:56:28.994Z,4.30
2023-03-27T07:59:16.080Z,4.40
2023-03-27T08:01:43.477Z,4.40
2023-03-27T08:04:10.911Z,4.40
2023-03-27T08:06:40.546Z,4.40
2023-03-27T08:09:12.480Z,4.50
2023-03-27T08:11:41.199Z,4.50
2023-03-27T08:14:09.256Z,4.60
2023-03-27T08:16:37.837Z,4.60
2023-03-27T08:19:06.263Z,4.60
2023-03-27T08:21:37.650Z,4.60
2023-03-27T08:24:04.883Z,4.60
2023-03-27T08:26:34.319Z,4.60
2023-03-27T08:29:04.304Z,4.60
2023-03-27T08:31:33.288Z,4.60
2023-03-27T08:34:04.989Z,4.60
2023-03-27T08:36:58.181Z,4.70
2023-03-27T08:39:34.730Z,4.70
2023-03-27T08:42:05.787Z,4.80
2023-03-27T08:44:35.162Z,4.90
2023-03-27T08:47:22.734Z,5.00
2023-03-27T08:49:59.171Z,5.10
2023-03-27T08:52:32.265Z,5.20
2023-03-27T08:55:05.426Z,5.20
2023-03-27T08:57:37.388Z,5.10
2023-03-27T09:00:22.620Z,5.00
2023-03-27T09:02:57.052Z,4.90
2023-03-27T09:05:49.695Z,4.80
2023-03-27T09:08:35.743Z,4.80
2023-03-27T09:11:09.349Z,4.80
2023-03-27T09:13:49.303Z,4.90
2023-03-27T09:16:25.364Z,4.90
2023-03-27T09:19:10.348Z,5.00
2023-03-27T09:21:44.547Z,4.90
2023-03-27T09:24:36.395Z,5.00
2023-03-27T09:27:26.590Z,5.00
2023-03-27T09:30:20.782Z,5.00
2023-03-27T09:32:55.669Z,5.00
2023-03-27T09:35:22.882Z,5.00
2023-03-27T09:38:03.733Z,5.00
2023-03-27T09:40:44.487Z,5.00
2023-03-27T09:43:16.253Z,5.10
2023-03-27T09:45:44.081Z,5.00
2023-03-27T09:48:14.250Z,5.10
2023-03-27T09:50:46.198Z,5.10
2023-03-27T09:53:57.411Z,5.20
2023-03-27T09:56:26.323Z,5.30
2023-03-27T09:58:54.566Z,5.30
2023-03-27T10:01:30.313Z,5.30
2023-03-27T10:04:13.139Z,5.40
2023-03-27T10:07:01.902Z,5.50
2023-03-27T10:10:08.427Z,5.60
2023-03-27T10:12:56.063Z,5.80
2023-03-27T10:15:34.115Z,5.90
2023-03-27T10:18:04.366Z,6.00
2023-03-27T10:20:31.362Z,6.10
2023-03-27T10:23:02.467Z,6.10
2023-03-27T10:25:34.574Z,6.20
2023-03-27T10:28:23.124Z,6.20
2023-03-27T10:31:09.939Z,6.10
2023-03-27T10:34:05.973Z,6.10
2023-03-27T10:36:55.936Z,6.00
2023-03-27T10:39:27.622Z,5.90
2023-03-27T10:42:16.494Z,5.70
2023-03-27T10:44:49.050Z,5.50
2023-03-27T10:47:17.537Z,5.40
2023-03-27T10:49:47.010Z,5.30
2023-03-27T10:52:44.018Z,5.20
2023-03-27T10:55:33.102Z,5.20
2023-03-27T10:58:03.902Z,5.20
2023-03-27T11:00:35.441Z,5.20
2023-03-27T11:03:11.665Z,5.20
2023-03-27T11:05:41.560Z,5.30
2023-03-27T11:08:17.251Z,5.40
2023-03-27T11:10:45.667Z,5.40
2023-03-27T11:13:23.970Z,5.40
2023-03-27T11:16:16.398Z,5.40
2023-03-27T11:19:11.153Z,5.50
2023-03-27T11:22:06.764Z,5.50
2023-03-27T11:24:40.321Z,5.50
2023-03-27T11:27:30.701Z,5.50
2023-03-27T11:30:04.587Z,5.40
2023-03-27T11:32:49.384Z,5.20
2023-03-27T11:35:24.518Z,5.20
2023-03-27T11:38:35.314Z,4.90
2023-03-27T11:41:03.542Z,4.70
2023-03-27T11:43:30.514Z,4.60
2023-03-27T11:46:09.811Z,4.50
2023-03-27T11:48:43.363Z,4.50
2023-03-27T11:51:24.397Z,4.40
2023-03-27T11:54:12.061Z,4.40
2023-03-27T11:56:58.127Z,4.50
2023-03-27T12:00:07.127Z,4.50
2023-03-27T12:03:06.796Z,4.50
2023-03-27T12:06:09.573Z,4.50
2023-03-27T12:08:51.644Z,4.50
2023-03-27T12:11:19.508Z,4.60
2023-03-27T12:14:17.584Z,4.60
2023-03-27T12:17:05.576Z,4.70
2023-03-27T12:20:16.039Z,4.90
2023-03-27T12:22:49.315Z,5.00
2023-03-27T12:25:45.418Z,5.10
2023-03-27T12:28:44.772Z,5.20
2023-03-27T12:31:39.403Z,5.20
2023-03-27T12:34:26.765Z,5.30
2023-03-27T12:36:56.179Z,5.40
2023-03-27T12:39:27.054Z,5.50
2023-03-27T12:41:57.468Z,5.60
2023-03-27T12:44:58.767Z,5.60
2023-03-27T12:47:29.335Z,5.70
2023-03-27T12:50:14.155Z,5.70
2023-03-27T12:52:44.820Z,5.90
2023-03-27T12:55:17.534Z,5.90
2023-03-27T12:58:05.147Z,6.00
2023-03-27T13:01:01.379Z,6.10
2023-03-27T13:04:02.070Z,6.40
2023-03-27T13:06:38.445Z,6.50
2023-03-27T13:09:10.627Z,6.60
2023-03-27T13:12:12.298Z,6.50
2023-03-27T13:15:07.118Z,6.30
2023-03-27T13:17:42.148Z,6.10
2023-03-27T13:20:12.368Z,5.70
2023-03-27T13:23:01.490Z,5.60
2023-03-27T13:25:38.876Z,5.50
2023-03-27T13:28:28.265Z,5.50
2023-03-27T13:31:11.531Z,5.50
2023-03-27T13:34:26.738Z,5.50
2023-03-27T13:37:26.039Z,5.50
2023-03-27T13:40:27.080Z,5.60
2023-03-27T13:43:10.121Z,5.60
2023-03-27T13:45:46.866Z,5.60
2023-03-27T13:48:50.423Z,5.60
2023-03-27T13:51:40.244Z,5.60
2023-03-27T13:54:32.666Z,5.60
2023-03-27T13:57:00.310Z,5.70
2023-03-27T13:59:53.513Z,5.80
2023-03-27T14:02:44.510Z,5.90
2023-03-27T14:05:29.168Z,6.10
2023-03-27T14:08:06.047Z,6.20
2023-03-27T14:11:16.015Z,6.30
2023-03-27T14:13:49.060Z,6.30
2023-03-27T14:16:28.480Z,6.20
2023-03-27T14:19:05.230Z,6.20
2023-03-27T14:21:49.628Z,6.00
2023-03-27T14:24:24.170Z,5.90
2023-03-27T14:26:55.741Z,5.80
2023-03-27T14:29:22.895Z,5.70
2023-03-27T14:31:51.300Z,5.60
2023-03-27T14:34:33.211Z,5.60
2023-03-27T14:37:31.380Z,5.60
2023-03-27T14:40:17.788Z,5.70
2023-03-27T14:42:46.588Z,5.70
2023-03-27T14:45:23.582Z,5.80
2023-03-27T14:47:55.828Z,5.80
2023-03-27T14:50:24.720Z,5.90
2023-03-27T14:52:54.188Z,5.90
2023-03-27T14:55:34.426Z,5.90
2023-03-27T14:58:21.204Z,5.90
2023-03-27T15:01:00.020Z,6.00
2023-03-27T15:03:30.980Z,6.00
2023-03-27T15:06:02.070Z,6.10
2023-03-27T15:08:37.109Z,6.10
2023-03-27T15:11:40.146Z,6.20
2023-03-27T15:14:18.666Z,6.30
2023-03-27T15:16:49.787Z,6.30
2023-03-27T15:19:19.725Z,6.40
2023-03-27T15:21:51.041Z,6.50
2023-03-27T15:24:30.292Z,6.50
2023-03-27T15:26:58.237Z,6.60
2023-03-27T15:29:24.951Z,6.60
2023-03-27T15:31:51.932Z,6.60
2023-03-27T15:34:21.781Z,6.50
2023-03-27T15:36:54.663Z,6.50
2023-03-27T15:39:21.830Z,6.50
2023-03-27T15:41:53.262Z,6.50
2023-03-27T15:44:22.066Z,6.50
2023-03-27T15:46:54.200Z,6.40
2023-03-27T15:49:29.218Z,6.40
2023-03-27T15:51:57.040Z,6.30
2023-03-27T15:54:25.362Z,6.20
2023-03-27T15:56:52.776Z,6.20
2023-03-27T15:59:52.933Z,6.20
2023-03-27T16:02:22.102Z,6.20
2023-03-27T16:04:53.637Z,6.10
2023-03-27T16:07:42.706Z,6.10
2023-03-27T16:10:10.665Z,6.10
2023-03-27T16:12:40.743Z,6.10
2023-03-27T16:15:27.988Z,6.20
2023-03-27T16:17:56.111Z,6.10
2023-03-27T16:20:24.402Z,6.00
2023-03-27T16:22:51.741Z,6.00
2023-03-27T16:25:19.373Z,6.00
2023-03-27T16:27:58.753Z,6.00
2023-03-27T16:30:42.280Z,6.00
2023-03-27T16:33:17.548Z,5.90
2023-03-27T16:35:45.936Z,5.90
2023-03-27T16:38:14.120Z,6.00
2023-03-27T16:40:42.260Z,6.00
2023-03-27T16:43:09.224Z,6.00
2023-03-27T16:45:36.769Z,6.00
2023-03-27T16:48:08.686Z,6.00
2023-03-27T16:50:36.855Z,6.00
2023-03-27T16:53:03.841Z,5.90
2023-03-27T16:55:31.832Z,5.90
2023-03-27T16:57:58.745Z,5.90
2023-03-27T17:00:26.676Z,5.90
2023-03-27T17:02:54.702Z,5.80
2023-03-27T17:05:24.465Z,5.80
2023-03-27T17:07:52.444Z,5.70
2023-03-27T17:10:19.350Z,5.70
2023-03-27T17:12:46.439Z,5.70
2023-03-27T17:15:15.075Z,5.60
2023-03-27T17:17:42.167Z,5.60
2023-03-27T17:20:09.905Z,5.60
2023-03-27T17:22:36.857Z,5.60
2023-03-27T17:25:05.719Z,5.50
2023-03-27T17:27:33.677Z,5.50
2023-03-27T17:30:00.495Z,5.40
2023-03-27T17:32:27.353Z,5.40
2023-03-27T17:34:54.300Z,5.40
2023-03-27T17:37:21.412Z,5.40
2023-03-27T17:39:50.347Z,5.40
2023-03-27T17:42:17.202Z,5.30
2023-03-27T17:44:45.228Z,5.30
2023-03-27T17:47:12.697Z,5.40
2023-03-27T17:49:40.788Z,5.30
2023-03-27T17:52:12.124Z,5.30
2023-03-27T17:54:39.379Z,5.20
2023-03-27T17:57:06.308Z,5.20
2023-03-27T17:59:33.437Z,5.20
2023-03-27T18:02:00.506Z,5.20
2023-03-27T18:04:29.022Z,5.10
2023-03-27T18:06:56.973Z,5.00
2023-03-27T18:09:24.942Z,4.80
2023-03-27T18:11:52.199Z,4.70
2023-03-27T18:14:20.268Z,4.70
2023-03-27T18:16:48.414Z,4.60
2023-03-27T18:19:16.069Z,4.50
2023-03-27T18:21:43.158Z,4.50
2023-03-27T18:24:10.323Z,4.50
2023-03-27T18:26:37.337Z,4.60
2023-03-27T18:29:04.977Z,4.60
2023-03-27T18:31:32.141Z,4.60
2023-03-27T18:33:59.050Z,4.50
2023-03-27T18:36:26.334Z,4.50
2023-03-27T18:38:53.200Z,4.50
2023-03-27T18:41:20.544Z,4.50
2023-03-27T18:43:47.562Z,4.40
2023-03-27T18:46:17.878Z,4.50
2023-03-27T18:48:45.999Z,4.50
2023-03-27T18:51:13.925Z,4.40
2023-03-27T18:53:41.007Z,4.40
2023-03-27T18:56:08.252Z,4.40
2023-03-27T18:58:35.964Z,4.40
2023-03-27T19:01:09.245Z,4.40
2023-03-27T19:03:36.837Z,4.40
2023-03-27T19:06:07.065Z,4.30
2023-03-27T19:08:37.475Z,4.40
2023-03-27T19:11:06.815Z,4.40
2023-03-27T19:13:53.948Z,4.40
2023-03-27T19:16:33.645Z,4.30
2023-03-27T19:19:19.380Z,4.30
2023-03-27T19:22:16.488Z,4.30
2023-03-27T19:24:48.019Z,4.20
2023-03-27T19:27:24.174Z,4.20
2023-03-27T19:29:52.094Z,4.30
2023-03-27T19:32:18.956Z,4.30
2023-03-27T19:34:45.961Z,4.30
2023-03-27T19:37:12.937Z,4.30
2023-03-27T19:39:40.866Z,4.30
2023-03-27T19:42:07.746Z,4.30
2023-03-27T19:44:38.159Z,4.30
2023-03-27T19:47:05.396Z,4.30
2023-03-27T19:49:33.506Z,4.30
2023-03-27T19:52:29.975Z,4.40
2023-03-27T19:54:57.252Z,4.40
2023-03-27T19:57:25.345Z,4.30
2023-03-27T19:59:52.358Z,4.30
2023-03-27T20:02:40.003Z,4.30
2023-03-27T20:05:14.910Z,4.30
2023-03-27T20:07:51.872Z,4.30
2023-03-27T20:10:22.128Z,4.30
2023-03-27T20:13:02.964Z,4.30
2023-03-27T20:15:29.870Z,4.30
2023-03-27T20:18:07.717Z,4.30
2023-03-27T20:21:01.960Z,4.30
2023-03-27T20:23:32.038Z,4.30
2023-03-27T20:26:03.302Z,4.30
2023-03-27T20:28:46.484Z,4.30
2023-03-27T20:31:17.192Z,4.40
2023-03-27T20:33:53.175Z,4.30
2023-03-27T20:36:23.315Z,4.40
2023-03-27T20:38:55.085Z,4.40
2023-03-27T20:41:22.762Z,4.40
2023-03-27T20:43:50.958Z,4.40
2023-03-27T20:46:29.141Z,4.40
2023-03-27T20:49:15.990Z,4.40
2023-03-27T20:51:43.307Z,4.40
2023-03-27T20:54:21.122Z,4.30
2023-03-27T20:57:02.062Z,4.30
2023-03-27T20:59:29.480Z,4.40
2023-03-27T21:01:56.874Z,4.40
2023-03-27T21:04:26.038Z,4.40
2023-03-27T21:06:54.999Z,4.40
2023-03-27T21:09:25.171Z,4.40
2023-03-27T21:11:55.234Z,4.40
2023-03-27T21:14:52.769Z,4.40
2023-03-27T21:17:21.693Z,4.40
2023-03-27T21:20:06.025Z,4.40
2023-03-27T21:22:37.181Z,4.40
2023-03-27T21:25:04.288Z,4.40
2023-03-27T21:27:35.375Z,4.40
2023-03-27T21:30:05.962Z,4.40
2023-03-27T21:32:35.484Z,4.40
2023-03-27T21:35:05.934Z,4.40
2023-03-27T21:37:33.910Z,4.40
2023-03-27T21:40:04.706Z,4.40
2023-03-27T21:42:33.829Z,4.40
2023-03-27T21:45:04.541Z,4.40
2023-03-27T21:47:44.963Z,4.30
2023-03-27T21:50:14.335Z,4.40
2023-03-27T21:52:41.505Z,4.40
2023-03-27T21:55:08.526Z,4.40
2023-03-27T21:57:35.439Z,4.30
2023-03-27T22:00:06.199Z,4.40
2023-03-27T22:02:40.322Z,4.40
2023-03-27T22:05:26.394Z,4.40
2023-03-27T22:07:55.448Z,4.40
2023-03-27T22:10:22.287Z,4.40
2023-03-27T22:12:49.291Z,4.40
2023-03-27T22:15:18.299Z,4.30
2023-03-27T22:17:46.394Z,4.40
2023-03-27T22:20:13.312Z,4.30
2023-03-27T22:22:40.444Z,4.30
2023-03-27T22:25:07.606Z,4.40
2023-03-27T22:27:34.446Z,4.30
2023-03-27T22:30:02.332Z,4.30
2023-03-27T22:32:29.262Z,4.30
2023-03-27T22:34:59.381Z,4.30
2023-03-27T22:37:29.286Z,4.20
2023-03-27T22:39:56.203Z,4.20
2023-03-27T22:42:23.002Z,4.10
2023-03-27T22:44:51.310Z,4.10
2023-03-27T22:47:18.085Z,4.10
2023-03-27T22:49:44.984Z,4.00
2023-03-27T22:52:11.741Z,4.00
2023-03-27T22:54:38.536Z,4.00
2023-03-27T22:57:05.920Z,4.00
2023-03-27T22:59:32.691Z,3.90
2023-03-27T23:01:59.468Z,3.90
2023-03-27T23:04:26.640Z,3.80
2023-03-27T23:06:53.793Z,3.80
2023-03-27T23:09:20.578Z,3.80
2023-03-27T23:11:47.456Z,3.80
2023-03-27T23:14:14.382Z,3.80
2023-03-27T23:16:43.569Z,3.80
2023-03-27T23:19:10.975Z,3.70
2023-03-27T23:21:37.842Z,3.70
2023-03-27T23:24:04.936Z,3.70
2023-03-27T23:26:31.779Z,3.70
2023-03-27T23:28:58.519Z,3.70
2023-03-27T23:31:25.418Z,3.70
2023-03-27T23:33:52.382Z,3.70
2023-03-27T23:36:20.452Z,3.60
2023-03-27T23:38:47.365Z,3.60
2023-03-27T23:41:15.394Z,3.60
2023-03-27T23:43:42.131Z,3.60
2023-03-27T23:46:10.645Z,3.60
2023-03-27T23:48:38.609Z,3.60
2023-03-27T23:51:05.969Z,3.60
2023-03-27T23:53:32.851Z,3.60
2023-03-27T23:56:00.110Z,3.60
2023-03-27T23:58:32.837Z,3.60
